createdAt,value
2022-11-05T14:06:53.962Z,20.93
2022-11-05T14:07:58.032Z,20.95
2022-11-05T14:09:02.102Z,20.96
2022-11-05T14:10:06.186Z,20.96
2022-11-05T14:11:10.455Z,20.94
2022-11-05T14:12:14.529Z,20.96
2022-11-05T14:13:18.632Z,20.94
2022-11-05T14:14:22.699Z,20.95
2022-11-05T14:15:26.789Z,20.93
2022-11-05T14:16:30.864Z,20.96
2022-11-05T14:17:34.954Z,20.96
2022-11-05T14:18:39.085Z,20.96
2022-11-05T14:19:43.180Z,20.94
2022-11-05T14:20:47.274Z,20.97
2022-11-05T14:21:51.345Z,20.96
2022-11-05T14:22:55.417Z,20.96
2022-11-05T14:23:59.555Z,20.96
2022-11-05T14:25:03.631Z,20.94
2022-11-05T14:26:07.740Z,20.96
2022-11-05T14:27:11.831Z,20.96
2022-11-05T14:28:15.928Z,20.96
2022-11-05T14:29:20.042Z,20.93
2022-11-05T14:30:24.132Z,20.95
2022-11-05T14:31:41.355Z,20.95
2022-11-05T14:33:12.770Z,20.95
2022-11-05T14:34:17.683Z,20.95
2022-11-05T14:35:21.791Z,20.95
2022-11-05T14:36:25.894Z,20.95
2022-11-05T14:37:29.967Z,20.95
2022-11-05T14:38:34.121Z,20.95
2022-11-05T14:39:38.205Z,20.96
2022-11-05T14:40:42.352Z,20.96
2022-11-05T14:41:46.534Z,20.96
2022-11-05T14:42:50.653Z,20.95
2022-11-05T14:43:54.752Z,20.94
2022-11-05T14:44:58.870Z,20.94
2022-11-05T14:46:02.942Z,20.97
2022-11-05T14:47:07.011Z,20.97
2022-11-05T14:48:11.100Z,20.97
2022-11-05T14:49:15.183Z,20.96
2022-11-05T14:50:19.270Z,20.94
2022-11-05T14:51:23.358Z,20.96
2022-11-05T14:52:27.595Z,20.94
2022-11-05T14:53:31.732Z,20.94
2022-11-05T14:54:35.833Z,20.96
2022-11-05T14:55:39.918Z,20.96
2022-11-05T14:56:44.026Z,20.96
2022-11-05T14:57:48.103Z,20.96
2022-11-05T14:58:52.223Z,20.83
2022-11-05T14:59:56.319Z,20.94
2022-11-05T15:01:00.439Z,20.94
2022-11-05T15:02:04.874Z,20.96
2022-11-05T15:03:09.684Z,20.96
2022-11-05T15:04:14.898Z,20.96
2022-11-05T15:05:19.229Z,20.96
2022-11-05T15:06:23.319Z,20.97
2022-11-05T15:07:27.380Z,20.94
2022-11-05T15:08:31.447Z,20.94
2022-11-05T15:09:35.551Z,20.96
2022-11-05T15:10:39.660Z,20.96
2022-11-05T15:11:43.819Z,20.94
2022-11-05T15:12:47.907Z,20.96
2022-11-05T15:13:52.009Z,20.94
2022-11-05T15:14:56.114Z,20.97
2022-11-05T15:16:00.216Z,20.96
2022-11-05T15:17:04.297Z,20.94
2022-11-05T15:18:08.384Z,20.94
2022-11-05T15:19:12.481Z,20.96
2022-11-05T15:20:16.563Z,20.96
2022-11-05T15:21:20.658Z,20.93
2022-11-05T15:22:24.746Z,20.93
2022-11-05T15:23:28.803Z,20.96
2022-11-05T15:24:32.914Z,20.96
2022-11-05T15:25:36.994Z,20.93
2022-11-05T15:26:41.067Z,20.95
2022-11-05T15:27:45.148Z,20.94
2022-11-05T15:28:49.252Z,20.93
2022-11-05T15:29:53.330Z,20.94
2022-11-05T15:30:57.468Z,20.96
2022-11-05T15:32:01.566Z,20.96
2022-11-05T15:33:05.703Z,20.96
2022-11-05T15:34:09.777Z,20.96
2022-11-05T15:35:13.848Z,20.97
2022-11-05T15:36:17.953Z,20.96
2022-11-05T15:37:22.047Z,20.94
2022-11-05T15:38:26.202Z,20.96
2022-11-05T15:39:30.552Z,20.96
2022-11-05T15:40:34.708Z,20.97
2022-11-05T15:41:38.785Z,20.97
2022-11-05T15:42:42.892Z,20.97
2022-11-05T15:43:48.136Z,20.96
2022-11-05T15:44:52.320Z,20.97
2022-11-05T15:45:56.386Z,20.96
2022-11-05T15:47:00.514Z,20.94
2022-11-05T15:48:04.584Z,20.96
2022-11-05T15:49:08.656Z,20.98
2022-11-05T15:50:14.596Z,20.97
2022-11-05T15:51:19.071Z,20.95
2022-11-05T15:52:23.140Z,20.98
2022-11-05T15:53:44.519Z,20.98
2022-11-05T15:55:33.076Z,20.97
2022-11-05T15:56:37.174Z,20.97
2022-11-05T15:57:44.121Z,20.96
2022-11-05T15:58:54.248Z,20.96
2022-11-05T15:59:58.399Z,20.95
2022-11-05T16:01:02.583Z,20.95
2022-11-05T16:02:07.028Z,20.97
2022-11-05T16:03:11.891Z,20.97
2022-11-05T16:04:17.039Z,20.97
2022-11-05T16:05:21.154Z,20.96
2022-11-05T16:06:25.211Z,20.94
2022-11-05T16:07:29.295Z,20.96
2022-11-05T16:08:33.374Z,20.96
2022-11-05T16:09:37.438Z,20.95
2022-11-05T16:10:41.511Z,20.93
2022-11-05T16:11:45.583Z,20.93
2022-11-05T16:12:49.652Z,20.92
2022-11-05T16:13:53.755Z,20.95
2022-11-05T16:14:57.882Z,20.95
2022-11-05T16:16:01.974Z,20.95
2022-11-05T16:17:06.073Z,20.96
2022-11-05T16:18:10.140Z,20.96
2022-11-05T16:19:14.196Z,20.94
2022-11-05T16:20:18.338Z,20.97
2022-11-05T16:21:22.442Z,20.96
2022-11-05T16:22:26.558Z,20.94
2022-11-05T16:23:30.654Z,20.97
2022-11-05T16:24:34.807Z,20.96
2022-11-05T16:25:39.020Z,20.94
2022-11-05T16:28:22.587Z,20.94
2022-11-05T16:29:26.667Z,20.95
2022-11-05T16:30:30.788Z,20.93
2022-11-05T16:31:34.889Z,20.96
2022-11-05T16:32:38.948Z,20.96
2022-11-05T16:33:43.108Z,20.93
2022-11-05T16:34:47.181Z,20.96
2022-11-05T16:35:51.373Z,20.96
2022-11-05T16:37:07.543Z,20.95
2022-11-05T16:38:11.879Z,20.95
2022-11-05T16:39:17.069Z,20.96
2022-11-05T16:40:21.158Z,20.96
2022-11-05T16:41:25.270Z,20.95
2022-11-05T16:42:29.349Z,20.92
2022-11-05T16:43:33.423Z,20.94
2022-11-05T16:44:37.490Z,20.94
2022-11-05T16:45:41.680Z,20.92
2022-11-05T16:46:45.806Z,20.92
2022-11-05T16:47:49.866Z,20.92
2022-11-05T16:48:53.952Z,20.94
2022-11-05T16:49:58.041Z,20.94
2022-11-05T16:51:02.213Z,20.96
2022-11-05T16:52:06.374Z,20.93
2022-11-05T16:53:10.547Z,20.93
2022-11-05T16:54:14.784Z,20.94
2022-11-05T16:55:18.887Z,20.94
2022-11-05T16:56:22.960Z,20.92
2022-11-05T16:57:27.036Z,20.93
2022-11-05T16:58:31.107Z,20.94
2022-11-05T16:59:35.194Z,20.94
2022-11-05T17:00:39.272Z,20.92
2022-11-05T17:01:48.281Z,20.93
2022-11-05T17:02:59.123Z,20.92
2022-11-05T17:04:03.528Z,20.94
2022-11-05T17:05:07.607Z,20.92
2022-11-05T17:06:11.704Z,20.92
2022-11-05T17:07:15.799Z,20.94
2022-11-05T17:08:19.893Z,20.91
2022-11-05T17:09:23.949Z,20.92
2022-11-05T17:10:28.011Z,20.93
2022-11-05T17:11:32.107Z,21.02
2022-11-05T17:12:36.183Z,21.23
2022-11-05T17:13:40.291Z,21.43
2022-11-05T17:14:44.360Z,21.56
2022-11-05T17:15:48.469Z,21.68
2022-11-05T17:16:52.546Z,21.76
2022-11-05T17:17:56.658Z,21.81
2022-11-05T17:19:00.759Z,21.84
2022-11-05T17:20:04.864Z,21.9
2022-11-05T17:21:08.940Z,21.95
2022-11-05T17:22:13.030Z,21.99
2022-11-05T17:23:17.124Z,22.02
2022-11-05T17:24:21.217Z,22.09
2022-11-05T17:25:25.304Z,22.13
2022-11-05T17:26:29.403Z,22.16
2022-11-05T17:27:33.463Z,22.16
2022-11-05T17:28:37.569Z,22.2
2022-11-05T17:29:41.661Z,22.24
2022-11-05T17:30:51.889Z,22.25
2022-11-05T17:31:56.601Z,22.27
2022-11-05T17:33:00.718Z,22.31
2022-11-05T17:34:05.182Z,22.32
2022-11-05T17:35:09.294Z,22.35
2022-11-05T17:36:13.395Z,22.39
2022-11-05T17:37:17.511Z,22.42
2022-11-05T17:38:21.612Z,22.48
2022-11-05T17:39:30.404Z,22.65
2022-11-05T17:40:35.640Z,22.75
2022-11-05T17:41:39.719Z,22.82
2022-11-05T17:42:43.830Z,22.93
2022-11-05T17:43:47.939Z,22.97
2022-11-05T17:44:52.072Z,23.05
2022-11-05T17:46:00.093Z,23.09
2022-11-05T17:47:07.984Z,23.12
2022-11-05T17:48:12.184Z,23.16
2022-11-05T17:49:16.300Z,23.17
2022-11-05T17:50:20.504Z,23.22
2022-11-05T17:51:24.626Z,23.27
2022-11-05T17:52:28.708Z,23.3
2022-11-05T17:53:32.807Z,23.34
2022-11-05T17:54:36.895Z,23.38
2022-11-05T17:55:40.970Z,23.42
2022-11-05T17:56:45.084Z,23.45
2022-11-05T17:57:49.148Z,23.45
2022-11-05T17:58:53.268Z,23.45
2022-11-05T17:59:57.376Z,23.54
2022-11-05T18:01:01.835Z,23.54
2022-11-05T18:02:06.120Z,23.59
2022-11-05T18:03:11.090Z,23.6
2022-11-05T18:04:16.518Z,23.65
2022-11-05T18:05:20.714Z,23.66
2022-11-05T18:06:25.454Z,23.69
2022-11-05T18:07:29.553Z,23.73
2022-11-05T18:08:33.671Z,23.72
2022-11-05T18:09:37.759Z,23.73
2022-11-05T18:10:41.841Z,23.79
2022-11-05T18:11:46.128Z,23.83
2022-11-05T18:12:50.231Z,23.85
2022-11-05T18:13:54.318Z,23.81
2022-11-05T18:14:58.411Z,23.85
2022-11-05T18:16:02.503Z,23.92
2022-11-05T18:17:06.600Z,23.94
2022-11-05T18:18:10.721Z,23.91
2022-11-05T18:19:14.827Z,23.98
2022-11-05T18:20:19.614Z,24.02
2022-11-05T18:21:23.830Z,24.05
2022-11-05T18:22:27.933Z,24.06
2022-11-05T18:23:32.053Z,24.1
2022-11-05T18:24:36.140Z,24.15
2022-11-05T18:25:40.242Z,24.03
2022-11-05T18:26:44.345Z,23.77
2022-11-05T18:27:48.445Z,23.54
2022-11-05T18:28:52.552Z,23.38
2022-11-05T18:29:56.651Z,23.27
2022-11-05T18:31:00.760Z,23.19
2022-11-05T18:32:04.855Z,23.13
2022-11-05T18:33:09.075Z,23.08
2022-11-05T18:34:14.158Z,23.1
2022-11-05T18:35:18.319Z,23.46
2022-11-05T18:36:22.414Z,23.67
2022-11-05T18:37:26.516Z,23.84
2022-11-05T18:38:30.609Z,23.97
2022-11-05T18:39:34.721Z,24.01
2022-11-05T18:40:38.808Z,24.13
2022-11-05T18:41:42.889Z,24.21
2022-11-05T18:42:46.971Z,24.24
2022-11-05T18:43:51.080Z,24.32
2022-11-05T18:44:55.491Z,24.32
2022-11-05T18:46:29.624Z,24.38
2022-11-05T18:48:01.217Z,24.44
2022-11-05T18:49:05.778Z,24.46
2022-11-05T18:50:11.127Z,24.49
2022-11-05T18:51:15.213Z,24.51
2022-11-05T18:52:19.347Z,24.52
2022-11-05T18:53:23.417Z,24.53
2022-11-05T18:54:27.530Z,24.53
2022-11-05T18:55:31.642Z,24.55
2022-11-05T18:56:35.769Z,24.58
2022-11-05T18:57:39.870Z,24.62
2022-11-05T18:58:43.919Z,24.64
2022-11-05T18:59:48.003Z,24.45
2022-11-05T19:00:52.084Z,24.22
2022-11-05T19:01:56.192Z,26.68
2022-11-05T19:03:00.775Z,25.12
2022-11-05T19:04:05.112Z,24.66
2022-11-05T19:06:43.298Z,24
2022-11-05T19:07:47.413Z,23.98
2022-11-05T19:08:51.497Z,23.91
2022-11-05T19:09:55.580Z,23.83
2022-11-05T19:10:59.659Z,23.81
2022-11-05T19:12:03.848Z,23.78
2022-11-05T19:13:07.926Z,23.74
2022-11-05T19:14:11.985Z,23.7
2022-11-05T19:15:16.065Z,23.7
2022-11-05T19:16:20.207Z,23.64
2022-11-05T19:17:24.277Z,23.63
2022-11-05T19:18:28.378Z,23.6
2022-11-05T19:19:32.699Z,23.58
2022-11-05T19:20:38.006Z,23.55
2022-11-05T19:21:42.183Z,23.55
2022-11-05T19:22:46.290Z,23.54
2022-11-05T19:23:50.541Z,23.53
2022-11-05T19:24:54.631Z,23.55
2022-11-05T19:25:58.695Z,23.56
2022-11-05T19:27:02.810Z,23.54
2022-11-05T19:28:06.888Z,23.54
2022-11-05T19:29:11.067Z,23.52
2022-11-05T19:30:15.162Z,23.51
2022-11-05T19:31:19.709Z,23.48
2022-11-05T19:32:23.773Z,23.44
2022-11-05T19:33:27.850Z,23.47
2022-11-05T19:34:31.900Z,23.44
2022-11-05T19:35:40.964Z,23.42
2022-11-05T19:36:45.207Z,23.42
2022-11-05T19:37:49.261Z,23.4
2022-11-05T19:38:53.331Z,23.38
2022-11-05T19:39:57.402Z,23.36
2022-11-05T19:41:01.484Z,23.34
2022-11-05T19:42:05.570Z,23.35
2022-11-05T19:43:09.694Z,23.32
2022-11-05T19:44:13.851Z,23.33
2022-11-05T19:45:38.723Z,23.31
2022-11-05T19:46:48.554Z,23.32
2022-11-05T19:47:52.621Z,23.33
2022-11-05T19:48:56.698Z,23.35
2022-11-05T19:50:00.767Z,23.33
2022-11-05T19:52:34.975Z,23.33
2022-11-05T19:53:39.051Z,23.31
2022-11-05T19:54:43.186Z,23.29
2022-11-05T19:55:53.233Z,23.28
